Terminal Aerodrome Forecast
Issued by NWS Northern Indiana

Home | Current Version | Previous Version | Text Only | Print | Product List | Glossary On
Versions: 1 2 3 4 5 6 7 8 9 10 11 12 13
000
FTUS43 KIWX 191734
TAFFWA
TAF
KFWA 191734Z 1918/2018 27005KT P6SM SKC
     FM200400 VRB03KT 3SM BR FEW250
     FM200600 VRB03KT 1/2SM FG OVC003
     FM201400 10005KT 1SM BR BKN005
     FM201600 12007KT 3SM BR SCT010=

USA.gov is the U.S. government's official web portal to all federal, state and local government web resources and services.